METAR stanice u blizini

 

LYBE - Beograd / Surčin, Srbija
Ažurirano: 03/07/2022 07:00
Vedro
Vedro
 Pravac vetra JZ
Vetar: JZ 11 km/h
Temperatura: 22°C
Tačka rose: 18°C
Vlažnost: 78%
Pritisak: 1018 hPa
Pregled: Vedro
Vidljivost: greater than 10 km
2022/07/03 05:00 LYBE 030500Z 22006KT CAVOK 22/18 Q1018 NOSIG
LYBT - Beograd / Batajnica, Srbija
Ažurirano: 03/07/2022 07:00
Vedro
Vedro
 Pravac vetra JJZ
Vetar: JJZ 6 km/h
Temperatura: 21°C
Tačka rose: 21°C
Vlažnost: 100%
Pritisak: 1018 hPa
Pregled: Vedro
Vidljivost: greater than 10 km
2022/07/03 05:00 LYBT 030500Z 21003KT CAVOK 21/21 Q1018 NOSIG
LYVR - Vršac, Srbija
Ažurirano: 03/07/2022 07:00
Vedro
Vedro
 Pravac vetra J
Vetar: J 9 km/h
Temperatura: 24°C
Tačka rose: 18°C
Vlažnost: 69%
Pritisak: 1018 hPa
Pregled: Vedro
Vidljivost: greater than 10 km
2022/07/03 05:00 LYVR 030500Z AUTO 18005KT 160V220 CAVOK 24/18 Q1018
 
LYKV - Lađevci, Srbija
Ažurirano: 03/07/2022 07:00
Vedro
Vedro
 Pravac vetra varies
Vetar: varies 4 km/h
Temperatura: 21°C
Tačka rose: 19°C
Vlažnost: 88%
Pritisak: 1019 hPa
Pregled: Vedro
Vidljivost: greater than 10 km
2022/07/03 05:00 LYKV 030500Z VRB02KT CAVOK 21/19 Q1019 NOSIG
LYNI - Niš, Srbija
Ažurirano: 03/07/2022 07:00
Vedro
Vedro
 Pravac vetra JI
Vetar: JI 6 km/h
Temperatura: 21°C
Tačka rose: 17°C
Vlažnost: 78%
Pritisak: 1019 hPa
Pregled: Vedro
Vidljivost: greater than 10 km
2022/07/03 05:00 LYNI 030500Z 14003KT 090V190 CAVOK 21/17 Q1019 NOSIG
BKPR - Priština, Srbija
Ažurirano: 03/07/2022 07:00
Vedro
Vedro
 Pravac vetra calm
Vetar: Tišina
Temperatura: 20°C
Tačka rose: 16°C
Vlažnost: 78%
Pritisak: 1021 hPa
Pregled: Vedro
Vidljivost: greater than 10 km
2022/07/03 05:00 BKPR 030500Z 00000KT CAVOK 20/16 Q1021 NOSIG
 
LHPP - Pecs / Pogany, Hungary
Ažurirano: 03/07/2022 06:45
Vedro
Vedro
 Pravac vetra varies
Vetar: varies 6 km/h
Temperatura: 20°C
Tačka rose: 13°C
Vlažnost: 64%
Pritisak: 1019 hPa
Pregled: Vedro
Vidljivost: greater than 10 km
2022/07/03 04:45 LHPP 030445Z AUTO VRB03KT CAVOK 20/13 Q1019
LHUD - Szeged, Hungary
Ažurirano: 04/07/2019 01:45
NOT Current
Vedro
Vedro
 Pravac vetra S
Vetar: S 7 km/h
Temperatura: 18°C
Tačka rose: 13°C
Vlažnost: 73%
Pritisak: 1019 hPa
Pregled: Vedro
Vidljivost: greater than 10 km
2019/07/03 23:45 LHUD 032345Z 35004KT CAVOK 18/13 Q1019
LRTR - Timisoara, Romania
Ažurirano: 03/07/2022 07:00
Vedro
Vedro
 Pravac vetra IJI
Vetar: IJI 9 km/h
Temperatura: 23°C
Tačka rose: 19°C
Vlažnost: 78%
Pritisak: 1018 hPa
Pregled: Vedro
Vidljivost: greater than 10 km
2022/07/03 05:00 LRTR 030500Z 11005KT CAVOK 23/19 Q1018
 
LRCV - Craiova, Romania
Ažurirano: 03/07/2022 07:00
Vedro
Vedro
 Pravac vetra SZ
Vetar: SZ 4 km/h
Temperatura: 22°C
Tačka rose: 20°C
Vlažnost: 88%
Pritisak: 1018 hPa
Pregled: Vedro
Vidljivost: greater than 10 km
2022/07/03 05:00 LRCV 030500Z 32002KT CAVOK 22/20 Q1018
LBSF - Sofia, Bulgaria
Ažurirano: 03/07/2022 07:00
Vedro
Vedro
 Pravac vetra varies
Vetar: varies 4 km/h
Temperatura: 19°C
Tačka rose: 16°C
Vlažnost: 83%
Pritisak: 1021 hPa
Pregled: Vedro
Vidljivost: greater than 10 km
2022/07/03 05:00 LBSF 030500Z VRB02KT CAVOK 19/16 Q1021 NOSIG
LWSK - Skoplje, Makedonija
Ažurirano: 03/07/2022 07:00
Vedro
Vedro
 Pravac vetra JJZ
Vetar: JJZ 2 km/h
Temperatura: 21°C
Tačka rose: 18°C
Vlažnost: 83%
Pritisak: 1019 hPa
Pregled: Vedro
Vidljivost: greater than 10 km
2022/07/03 05:00 LWSK 030500Z 21001KT CAVOK 21/18 Q1019 NOSIG
 
LYPG - Podgorica, Crna Gora
Ažurirano: 03/07/2022 07:00
Vedro
Vedro
 Pravac vetra SSZ
Vetar: SSZ 15 km/h
Temperatura: 27°C
Heat Index: 27°C
Tačka rose: 13°C
Vlažnost: 42%
Pritisak: 1016 hPa
Pregled: Vedro
Vidljivost: greater than 10 km
2022/07/03 05:00 LYPG 030500Z 33008KT CAVOK 27/13 Q1016 NOSIG
LQSA - Sarajevo, Bosna i Hercegovina
Ažurirano: 03/07/2022 07:00
Vedro
Vedro
 Pravac vetra varies
Vetar: varies 4 km/h
Temperatura: 19°C
Tačka rose: 17°C
Vlažnost: 88%
Pritisak: 1020 hPa
Pregled: Vedro
Vidljivost: greater than 10 km
2022/07/03 05:00 LQSA 030500Z VRB02KT CAVOK 19/17 Q1020 NOSIG
LDOS - Osijek, Hrvatksa
Ažurirano: 03/07/2022 07:00
Vedro
Vedro
 Pravac vetra SSZ
Vetar: SSZ 7 km/h
Temperatura: 20°C
Tačka rose: 15°C
Vlažnost: 73%
Pritisak: 1019 hPa
Pregled: Vedro
Vidljivost: greater than 10 km
2022/07/03 05:00 LDOS 030500Z 33004KT CAVOK 20/15 Q1019